createdAt,value
2023-03-17T00:00:50.701Z,2.06
2023-03-17T00:03:31.817Z,2.05
2023-03-17T00:06:02.356Z,2.02
2023-03-17T00:08:36.164Z,2.01
2023-03-17T00:11:04.808Z,2.02
2023-03-17T00:13:33.818Z,2.01
2023-03-17T00:16:07.736Z,2.02
2023-03-17T00:18:37.187Z,2.00
2023-03-17T00:21:06.179Z,1.97
2023-03-17T00:23:35.552Z,1.94
2023-03-17T00:26:03.919Z,1.93
2023-03-17T00:28:32.444Z,1.92
2023-03-17T00:31:03.558Z,1.90
2023-03-17T00:33:34.862Z,1.87
2023-03-17T00:36:03.692Z,1.84
2023-03-17T00:38:32.177Z,1.83
2023-03-17T00:41:00.713Z,1.85
2023-03-17T00:43:30.743Z,1.82
2023-03-17T00:45:59.172Z,1.79
2023-03-17T00:48:30.138Z,1.75
2023-03-17T00:50:58.774Z,1.73
2023-03-17T00:53:30.688Z,1.71
2023-03-17T00:56:00.987Z,1.71
2023-03-17T00:58:33.049Z,1.68
2023-03-17T01:01:01.622Z,1.67
2023-03-17T01:03:31.279Z,1.64
2023-03-17T01:06:00.575Z,1.61
2023-03-17T01:08:30.331Z,1.60
2023-03-17T01:10:59.667Z,1.59
2023-03-17T01:13:28.698Z,1.59
2023-03-17T01:15:57.944Z,1.58
2023-03-17T01:18:26.368Z,1.55
2023-03-17T01:20:54.776Z,1.53
2023-03-17T01:23:23.242Z,1.52
2023-03-17T01:25:51.872Z,1.50
2023-03-17T01:28:21.042Z,1.47
2023-03-17T01:30:50.193Z,1.45
2023-03-17T01:33:20.041Z,1.46
2023-03-17T01:35:52.284Z,1.47
2023-03-17T01:42:01.646Z,1.54
2023-03-17T01:44:30.930Z,1.50
2023-03-17T01:47:01.270Z,1.53
2023-03-17T01:49:35.688Z,1.51
2023-03-17T01:52:16.234Z,1.49
2023-03-17T01:54:57.024Z,1.47
2023-03-17T01:57:34.322Z,1.43
2023-03-17T02:00:20.527Z,1.41
2023-03-17T02:02:51.962Z,1.36
2023-03-17T02:05:24.296Z,1.31
2023-03-17T02:07:54.622Z,1.27
2023-03-17T02:10:30.027Z,1.26
2023-03-17T02:13:04.105Z,1.26
2023-03-17T02:15:46.393Z,1.24
2023-03-17T02:18:15.831Z,1.23
2023-03-17T02:20:47.205Z,1.21
2023-03-17T02:23:24.391Z,1.20
2023-03-17T02:25:54.240Z,1.18
2023-03-17T02:28:31.002Z,1.15
2023-03-17T02:31:00.283Z,1.09
2023-03-17T02:33:29.983Z,1.05
2023-03-17T02:35:58.350Z,1.01
2023-03-17T02:38:27.317Z,0.98
2023-03-17T02:40:56.690Z,0.92
2023-03-17T02:43:26.017Z,0.88
2023-03-17T02:45:57.722Z,0.84
2023-03-17T02:48:27.539Z,0.79
2023-03-17T02:50:56.940Z,0.74
2023-03-17T02:53:25.339Z,0.70
2023-03-17T02:55:53.801Z,0.69
2023-03-17T02:58:22.112Z,0.66
2023-03-17T03:00:50.604Z,0.64
2023-03-17T03:03:19.389Z,0.61
2023-03-17T03:05:48.044Z,0.58
2023-03-17T03:08:17.308Z,0.57
2023-03-17T03:10:47.063Z,0.55
2023-03-17T03:13:16.315Z,0.52
2023-03-17T03:15:45.138Z,0.48
2023-03-17T03:18:13.595Z,0.44
2023-03-17T03:20:44.784Z,0.40
2023-03-17T03:23:15.495Z,0.37
2023-03-17T03:25:47.081Z,0.35
2023-03-17T03:28:15.726Z,0.32
2023-03-17T03:30:45.661Z,0.28
2023-03-17T03:33:16.277Z,0.24
2023-03-17T03:35:44.827Z,0.21
2023-03-17T03:38:14.165Z,0.17
2023-03-17T03:40:42.518Z,0.15
2023-03-17T03:43:22.530Z,0.12
2023-03-17T03:45:52.044Z,0.08
2023-03-17T03:48:21.390Z,0.03
2023-03-17T03:50:50.039Z,-0.03
2023-03-17T03:53:18.327Z,-0.07
2023-03-17T03:55:46.943Z,-0.09
2023-03-17T03:58:15.678Z,-0.09
2023-03-17T04:00:44.169Z,-0.10
2023-03-17T04:03:13.615Z,-0.11
2023-03-17T04:05:42.210Z,-0.11
2023-03-17T04:08:11.587Z,-0.14
2023-03-17T04:10:40.258Z,-0.18
2023-03-17T04:13:08.759Z,-0.20
2023-03-17T04:15:37.798Z,-0.21
2023-03-17T04:18:06.216Z,-0.20
2023-03-17T04:20:34.738Z,-0.22
2023-03-17T04:23:03.158Z,-0.25
2023-03-17T04:25:31.823Z,-0.28
2023-03-17T04:31:39.917Z,-0.29
2023-03-17T04:34:15.881Z,-0.33
2023-03-17T04:36:45.892Z,-0.34
2023-03-17T04:39:15.817Z,-0.36
2023-03-17T04:41:44.371Z,-0.39
2023-03-17T04:44:13.247Z,-0.40
2023-03-17T04:46:42.204Z,-0.43
2023-03-17T04:49:10.662Z,-0.46
2023-03-17T04:51:39.218Z,-0.47
2023-03-17T04:54:10.541Z,-0.46
2023-03-17T04:56:40.774Z,-0.43
2023-03-17T04:59:09.403Z,-0.40
2023-03-17T05:01:39.289Z,-0.36
2023-03-17T05:04:09.102Z,-0.33
2023-03-17T05:06:38.550Z,-0.29
2023-03-17T05:09:07.140Z,-0.25
2023-03-17T05:11:35.658Z,-0.16
2023-03-17T05:14:04.181Z,-0.11
2023-03-17T05:16:32.641Z,-0.07
2023-03-17T05:19:01.185Z,-0.02
2023-03-17T05:21:29.710Z,0.01
2023-03-17T05:23:58.017Z,0.04
2023-03-17T05:26:27.326Z,0.08
2023-03-17T05:28:55.831Z,0.14
2023-03-17T05:31:24.420Z,0.26
2023-03-17T05:33:52.798Z,0.31
2023-03-17T05:36:21.440Z,0.36
2023-03-17T05:38:49.815Z,0.42
2023-03-17T05:41:18.346Z,0.49
2023-03-17T05:43:47.009Z,0.52
2023-03-17T05:46:15.685Z,0.59
2023-03-17T05:48:44.514Z,0.65
2023-03-17T05:51:12.851Z,0.70
2023-03-17T05:53:41.918Z,0.74
2023-03-17T05:56:10.488Z,0.80
2023-03-17T05:58:43.071Z,0.84
2023-03-17T06:01:11.517Z,0.90
2023-03-17T06:03:40.040Z,0.95
2023-03-17T06:06:10.475Z,0.99
2023-03-17T06:08:39.015Z,1.01
2023-03-17T06:11:07.520Z,1.04
2023-03-17T06:13:36.174Z,1.13
2023-03-17T06:16:05.009Z,1.20
2023-03-17T06:18:33.578Z,1.24
2023-03-17T06:21:02.387Z,1.26
2023-03-17T06:23:31.272Z,1.29
2023-03-17T06:25:59.755Z,1.34
2023-03-17T06:28:28.137Z,1.40
2023-03-17T06:30:56.577Z,1.44
2023-03-17T06:33:27.523Z,1.51
2023-03-17T06:35:56.558Z,1.59
2023-03-17T06:38:25.810Z,1.66
2023-03-17T06:40:54.481Z,1.71
2023-03-17T06:43:25.053Z,1.78
2023-03-17T06:45:53.670Z,1.83
2023-03-17T06:48:23.707Z,1.88
2023-03-17T06:50:52.070Z,1.94
2023-03-17T06:53:20.955Z,1.97
2023-03-17T06:55:49.513Z,2.01
2023-03-17T06:58:18.074Z,2.01
2023-03-17T07:00:49.511Z,2.07
2023-03-17T07:03:18.060Z,2.10
2023-03-17T07:05:47.114Z,2.15
2023-03-17T07:08:16.024Z,2.26
2023-03-17T07:10:46.188Z,2.37
2023-03-17T07:13:14.923Z,2.46
2023-03-17T07:15:45.570Z,2.57
2023-03-17T07:21:52.506Z,2.84
2023-03-17T07:24:21.040Z,2.96
2023-03-17T07:26:53.644Z,3.07
2023-03-17T07:29:22.873Z,3.19
2023-03-17T07:31:51.454Z,3.31
2023-03-17T07:34:22.573Z,3.42
2023-03-17T07:36:51.249Z,3.51
2023-03-17T07:39:20.250Z,3.58
2023-03-17T07:41:53.325Z,3.62
2023-03-17T07:44:23.338Z,3.69
2023-03-17T07:46:52.316Z,3.76
2023-03-17T07:49:38.166Z,3.87
2023-03-17T07:52:10.668Z,4.03
2023-03-17T07:54:42.196Z,4.15
2023-03-17T07:57:12.384Z,4.18
2023-03-17T07:59:41.907Z,4.26
2023-03-17T08:02:18.301Z,4.37
2023-03-17T08:04:47.391Z,4.45
2023-03-17T08:07:15.788Z,4.49
2023-03-17T08:09:44.134Z,4.58
2023-03-17T08:12:12.978Z,4.73
2023-03-17T08:14:41.812Z,4.77
2023-03-17T08:17:10.689Z,4.75
2023-03-17T08:19:39.626Z,4.76
2023-03-17T08:22:08.263Z,4.89
2023-03-17T08:24:43.159Z,4.99
2023-03-17T08:27:11.846Z,5.05
2023-03-17T08:29:40.600Z,5.07
2023-03-17T08:32:09.693Z,5.04
2023-03-17T08:34:38.762Z,5.05
2023-03-17T08:37:09.445Z,5.08
2023-03-17T08:39:40.711Z,5.13
2023-03-17T08:42:09.524Z,5.19
2023-03-17T08:44:39.271Z,5.24
2023-03-17T08:47:08.816Z,5.21
2023-03-17T08:49:38.968Z,5.26
2023-03-17T08:52:08.324Z,5.33
2023-03-17T08:54:37.656Z,5.44
2023-03-17T08:57:08.662Z,5.52
2023-03-17T08:59:37.463Z,5.60
2023-03-17T09:02:07.757Z,5.68
2023-03-17T09:04:39.886Z,5.84
2023-03-17T09:07:10.614Z,5.94
2023-03-17T09:09:39.888Z,5.92
2023-03-17T09:12:09.693Z,5.93
2023-03-17T09:14:43.803Z,5.97
2023-03-17T09:17:14.810Z,6.03
2023-03-17T09:19:43.856Z,6.05
2023-03-17T09:22:14.977Z,6.06
2023-03-17T09:24:43.476Z,6.05
2023-03-17T09:27:11.993Z,6.04
2023-03-17T09:29:42.508Z,6.01
2023-03-17T09:32:11.479Z,6.10
2023-03-17T09:34:40.026Z,6.13
2023-03-17T09:37:10.107Z,6.18
2023-03-17T09:39:38.742Z,6.29
2023-03-17T09:42:23.136Z,6.35
2023-03-17T09:45:56.545Z,6.37
2023-03-17T09:48:25.568Z,6.39
2023-03-17T09:51:14.629Z,6.49
2023-03-17T09:54:02.889Z,6.60
2023-03-17T09:56:36.984Z,6.67
2023-03-17T09:59:15.617Z,6.65
2023-03-17T10:01:44.276Z,6.81
2023-03-17T10:04:12.878Z,6.88
2023-03-17T10:06:50.405Z,6.92
2023-03-17T10:09:26.171Z,6.89
2023-03-17T10:12:04.444Z,6.89
2023-03-17T10:14:41.822Z,6.98
2023-03-17T10:17:18.683Z,7.12
2023-03-17T10:20:05.744Z,7.23
2023-03-17T10:22:46.475Z,7.22
2023-03-17T10:25:28.188Z,7.28
2023-03-17T10:28:09.218Z,7.31
2023-03-17T10:30:38.405Z,7.31
2023-03-17T10:33:09.759Z,7.30
2023-03-17T10:35:39.743Z,7.36
2023-03-17T10:38:34.800Z,7.43
2023-03-17T10:41:12.717Z,7.30
2023-03-17T10:43:47.710Z,7.26
2023-03-17T10:46:26.316Z,7.20
2023-03-17T10:48:58.587Z,7.33
2023-03-17T10:51:37.838Z,7.40
2023-03-17T10:54:17.894Z,7.35
